sensor_id;sensor_type;location;lat;lon;timestamp;temperature;humidity
29501;DHT22;16450;50.288;10.966;2023-03-11T00:02:49;1.60;99.90
29501;DHT22;16450;50.288;10.966;2023-03-11T00:05:52;1.60;99.90
29501;DHT22;16450;50.288;10.966;2023-03-11T00:08:54;1.60;99.90
29501;DHT22;16450;50.288;10.966;2023-03-11T00:11:56;1.60;99.90
29501;DHT22;16450;50.288;10.966;2023-03-11T00:14:58;1.60;99.90
29501;DHT22;16450;50.288;10.966;2023-03-11T00:18:00;1.60;99.90
29501;DHT22;16450;50.288;10.966;2023-03-11T00:21:03;1.60;99.90
29501;DHT22;16450;50.288;10.966;2023-03-11T00:24:05;1.50;99.90
29501;DHT22;16450;50.288;10.966;2023-03-11T00:27:07;1.50;99.90
29501;DHT22;16450;50.288;10.966;2023-03-11T00:30:10;1.50;99.90
29501;DHT22;16450;50.288;10.966;2023-03-11T00:33:14;1.60;99.90
29501;DHT22;16450;50.288;10.966;2023-03-11T00:36:30;1.60;99.90
29501;DHT22;16450;50.288;10.966;2023-03-11T00:39:32;1.50;99.90
29501;DHT22;16450;50.288;10.966;2023-03-11T00:42:34;1.50;99.90
29501;DHT22;16450;50.288;10.966;2023-03-11T00:45:37;1.50;99.90
29501;DHT22;16450;50.288;10.966;2023-03-11T00:48:38;1.50;99.90
29501;DHT22;16450;50.288;10.966;2023-03-11T00:51:40;1.50;99.90
29501;DHT22;16450;50.288;10.966;2023-03-11T00:54:42;1.50;99.90
29501;DHT22;16450;50.288;10.966;2023-03-11T00:57:44;1.50;99.90
29501;DHT22;16450;50.288;10.966;2023-03-11T01:00:46;1.50;99.90
29501;DHT22;16450;50.288;10.966;2023-03-11T01:03:48;1.50;99.90
29501;DHT22;16450;50.288;10.966;2023-03-11T01:06:53;1.50;99.90
29501;DHT22;16450;50.288;10.966;2023-03-11T01:09:54;1.50;99.90
29501;DHT22;16450;50.288;10.966;2023-03-11T01:12:56;1.50;99.90
29501;DHT22;16450;50.288;10.966;2023-03-11T01:15:58;1.50;99.90
29501;DHT22;16450;50.288;10.966;2023-03-11T01:19:00;1.50;99.90
29501;DHT22;16450;50.288;10.966;2023-03-11T01:22:01;1.50;99.90
29501;DHT22;16450;50.288;10.966;2023-03-11T01:25:04;1.50;99.90
29501;DHT22;16450;50.288;10.966;2023-03-11T01:28:06;1.50;99.90
29501;DHT22;16450;50.288;10.966;2023-03-11T01:31:09;1.50;99.90
29501;DHT22;16450;50.288;10.966;2023-03-11T01:34:11;1.50;99.90
29501;DHT22;16450;50.288;10.966;2023-03-11T01:37:13;1.50;99.90
29501;DHT22;16450;50.288;10.966;2023-03-11T01:40:31;1.50;99.90
29501;DHT22;16450;50.288;10.966;2023-03-11T01:43:54;1.40;99.90
29501;DHT22;16450;50.288;10.966;2023-03-11T01:50:02;1.40;99.90
29501;DHT22;16450;50.288;10.966;2023-03-11T01:53:04;1.40;99.90
29501;DHT22;16450;50.288;10.966;2023-03-11T01:56:06;1.40;99.90
29501;DHT22;16450;50.288;10.966;2023-03-11T01:59:11;1.40;99.90
29501;DHT22;16450;50.288;10.966;2023-03-11T02:02:18;1.40;99.90
29501;DHT22;16450;50.288;10.966;2023-03-11T02:05:22;1.40;99.90
29501;DHT22;16450;50.288;10.966;2023-03-11T02:08:24;1.40;99.90
29501;DHT22;16450;50.288;10.966;2023-03-11T02:11:28;1.30;99.90
29501;DHT22;16450;50.288;10.966;2023-03-11T02:14:31;1.30;99.90
29501;DHT22;16450;50.288;10.966;2023-03-11T02:17:34;1.30;99.90
29501;DHT22;16450;50.288;10.966;2023-03-11T02:20:43;1.30;99.90
29501;DHT22;16450;50.288;10.966;2023-03-11T02:30:01;1.30;99.90
29501;DHT22;16450;50.288;10.966;2023-03-11T02:33:03;1.30;99.90
29501;DHT22;16450;50.288;10.966;2023-03-11T02:36:05;1.30;99.90
29501;DHT22;16450;50.288;10.966;2023-03-11T02:39:08;1.30;99.90
29501;DHT22;16450;50.288;10.966;2023-03-11T02:42:23;1.30;99.90
29501;DHT22;16450;50.288;10.966;2023-03-11T02:45:25;1.30;99.90
29501;DHT22;16450;50.288;10.966;2023-03-11T02:48:28;1.30;99.90
29501;DHT22;16450;50.288;10.966;2023-03-11T02:51:30;1.30;99.90
29501;DHT22;16450;50.288;10.966;2023-03-11T02:54:32;1.30;99.90
29501;DHT22;16450;50.288;10.966;2023-03-11T02:57:34;1.30;99.90
29501;DHT22;16450;50.288;10.966;2023-03-11T03:00:36;1.30;99.90
29501;DHT22;16450;50.288;10.966;2023-03-11T03:03:39;1.30;99.90
29501;DHT22;16450;50.288;10.966;2023-03-11T03:06:40;1.20;99.90
29501;DHT22;16450;50.288;10.966;2023-03-11T03:09:42;1.30;99.90
29501;DHT22;16450;50.288;10.966;2023-03-11T03:12:44;1.20;99.90
29501;DHT22;16450;50.288;10.966;2023-03-11T03:15:46;1.20;99.90
29501;DHT22;16450;50.288;10.966;2023-03-11T03:18:48;1.20;99.90
29501;DHT22;16450;50.288;10.966;2023-03-11T03:21:49;1.20;99.90
29501;DHT22;16450;50.288;10.966;2023-03-11T03:24:51;1.10;99.90
29501;DHT22;16450;50.288;10.966;2023-03-11T03:27:53;1.10;99.90
29501;DHT22;16450;50.288;10.966;2023-03-11T03:30:55;1.10;99.90
29501;DHT22;16450;50.288;10.966;2023-03-11T03:34:03;1.10;99.90
29501;DHT22;16450;50.288;10.966;2023-03-11T03:37:05;1.10;99.90
29501;DHT22;16450;50.288;10.966;2023-03-11T03:40:08;1.10;99.90
29501;DHT22;16450;50.288;10.966;2023-03-11T03:43:10;1.10;99.90
29501;DHT22;16450;50.288;10.966;2023-03-11T03:46:12;1.00;99.90
29501;DHT22;16450;50.288;10.966;2023-03-11T03:49:14;1.00;99.90
29501;DHT22;16450;50.288;10.966;2023-03-11T03:52:16;1.00;99.90
29501;DHT22;16450;50.288;10.966;2023-03-11T03:55:17;1.00;99.90
29501;DHT22;16450;50.288;10.966;2023-03-11T03:58:19;1.00;99.90
29501;DHT22;16450;50.288;10.966;2023-03-11T04:01:21;1.00;99.90
29501;DHT22;16450;50.288;10.966;2023-03-11T04:04:23;1.00;99.90
29501;DHT22;16450;50.288;10.966;2023-03-11T04:07:25;1.00;99.90
29501;DHT22;16450;50.288;10.966;2023-03-11T04:10:27;0.90;99.90
29501;DHT22;16450;50.288;10.966;2023-03-11T04:13:28;0.90;99.90
29501;DHT22;16450;50.288;10.966;2023-03-11T04:16:31;0.80;99.90
29501;DHT22;16450;50.288;10.966;2023-03-11T04:19:33;0.80;99.90
29501;DHT22;16450;50.288;10.966;2023-03-11T04:22:35;0.80;99.90
29501;DHT22;16450;50.288;10.966;2023-03-11T04:25:37;0.80;99.90
29501;DHT22;16450;50.288;10.966;2023-03-11T04:28:38;0.70;99.90
29501;DHT22;16450;50.288;10.966;2023-03-11T04:31:40;0.70;99.90
29501;DHT22;16450;50.288;10.966;2023-03-11T04:34:42;0.70;99.90
29501;DHT22;16450;50.288;10.966;2023-03-11T04:37:44;0.70;99.90
29501;DHT22;16450;50.288;10.966;2023-03-11T04:40:45;0.70;99.80
29501;DHT22;16450;50.288;10.966;2023-03-11T04:43:47;0.60;99.70
29501;DHT22;16450;50.288;10.966;2023-03-11T04:46:50;0.60;99.70
29501;DHT22;16450;50.288;10.966;2023-03-11T04:49:52;0.60;99.60
29501;DHT22;16450;50.288;10.966;2023-03-11T04:52:54;0.50;99.50
29501;DHT22;16450;50.288;10.966;2023-03-11T04:55:57;0.50;99.60
29501;DHT22;16450;50.288;10.966;2023-03-11T04:58:59;0.60;99.70
29501;DHT22;16450;50.288;10.966;2023-03-11T05:02:01;0.50;99.60
29501;DHT22;16450;50.288;10.966;2023-03-11T05:05:03;0.50;99.60
29501;DHT22;16450;50.288;10.966;2023-03-11T05:08:05;0.50;99.60
29501;DHT22;16450;50.288;10.966;2023-03-11T05:11:07;0.50;99.80
29501;DHT22;16450;50.288;10.966;2023-03-11T05:14:09;0.50;99.70
29501;DHT22;16450;50.288;10.966;2023-03-11T05:17:11;0.60;99.80
29501;DHT22;16450;50.288;10.966;2023-03-11T05:20:15;0.50;99.90
29501;DHT22;16450;50.288;10.966;2023-03-11T05:23:18;0.50;99.80
29501;DHT22;16450;50.288;10.966;2023-03-11T05:26:20;0.50;99.70
29501;DHT22;16450;50.288;10.966;2023-03-11T05:29:23;0.50;99.70
29501;DHT22;16450;50.288;10.966;2023-03-11T05:32:25;0.50;99.50
29501;DHT22;16450;50.288;10.966;2023-03-11T05:35:27;0.50;99.70
29501;DHT22;16450;50.288;10.966;2023-03-11T05:38:29;0.40;99.50
29501;DHT22;16450;50.288;10.966;2023-03-11T05:41:31;0.40;99.40
29501;DHT22;16450;50.288;10.966;2023-03-11T05:44:33;0.40;99.50
29501;DHT22;16450;50.288;10.966;2023-03-11T05:47:35;0.40;99.50
29501;DHT22;16450;50.288;10.966;2023-03-11T05:50:39;0.40;99.60
29501;DHT22;16450;50.288;10.966;2023-03-11T05:53:43;0.30;99.50
29501;DHT22;16450;50.288;10.966;2023-03-11T05:56:49;0.30;99.50
29501;DHT22;16450;50.288;10.966;2023-03-11T05:59:51;0.30;99.50
29501;DHT22;16450;50.288;10.966;2023-03-11T06:02:53;0.30;99.60
29501;DHT22;16450;50.288;10.966;2023-03-11T06:05:55;0.30;99.60
29501;DHT22;16450;50.288;10.966;2023-03-11T06:08:57;0.30;99.70
29501;DHT22;16450;50.288;10.966;2023-03-11T06:11:58;0.30;99.70
29501;DHT22;16450;50.288;10.966;2023-03-11T06:15:00;0.30;99.90
29501;DHT22;16450;50.288;10.966;2023-03-11T06:18:02;0.30;99.90
29501;DHT22;16450;50.288;10.966;2023-03-11T06:21:05;0.40;99.90
29501;DHT22;16450;50.288;10.966;2023-03-11T06:24:07;0.40;99.90
29501;DHT22;16450;50.288;10.966;2023-03-11T06:27:09;0.40;99.90
29501;DHT22;16450;50.288;10.966;2023-03-11T06:30:12;0.40;99.90
29501;DHT22;16450;50.288;10.966;2023-03-11T06:33:14;0.50;99.90
29501;DHT22;16450;50.288;10.966;2023-03-11T06:36:19;0.50;99.90
29501;DHT22;16450;50.288;10.966;2023-03-11T06:39:21;0.50;99.90
29501;DHT22;16450;50.288;10.966;2023-03-11T06:42:23;0.60;99.90
29501;DHT22;16450;50.288;10.966;2023-03-11T06:45:25;0.60;99.90
29501;DHT22;16450;50.288;10.966;2023-03-11T06:48:27;0.60;99.90
29501;DHT22;16450;50.288;10.966;2023-03-11T06:51:29;0.70;99.90
29501;DHT22;16450;50.288;10.966;2023-03-11T06:54:31;0.70;99.90
29501;DHT22;16450;50.288;10.966;2023-03-11T06:57:33;0.80;99.90
29501;DHT22;16450;50.288;10.966;2023-03-11T07:00:35;0.80;99.90
29501;DHT22;16450;50.288;10.966;2023-03-11T07:03:37;0.90;99.90
29501;DHT22;16450;50.288;10.966;2023-03-11T07:06:40;1.00;99.90
29501;DHT22;16450;50.288;10.966;2023-03-11T07:09:43;1.00;99.90
29501;DHT22;16450;50.288;10.966;2023-03-11T07:12:44;1.00;99.90
29501;DHT22;16450;50.288;10.966;2023-03-11T07:15:46;1.10;99.90
29501;DHT22;16450;50.288;10.966;2023-03-11T07:18:49;1.10;99.90
29501;DHT22;16450;50.288;10.966;2023-03-11T07:21:52;1.10;99.90
29501;DHT22;16450;50.288;10.966;2023-03-11T07:24:54;1.10;99.90
29501;DHT22;16450;50.288;10.966;2023-03-11T07:27:55;1.10;99.90
29501;DHT22;16450;50.288;10.966;2023-03-11T07:30:57;1.10;99.90
29501;DHT22;16450;50.288;10.966;2023-03-11T07:34:01;1.10;99.90
29501;DHT22;16450;50.288;10.966;2023-03-11T07:37:04;1.10;99.90
29501;DHT22;16450;50.288;10.966;2023-03-11T07:40:06;1.20;99.90
29501;DHT22;16450;50.288;10.966;2023-03-11T07:43:10;1.20;99.90
29501;DHT22;16450;50.288;10.966;2023-03-11T07:46:15;1.30;99.90
29501;DHT22;16450;50.288;10.966;2023-03-11T07:49:24;1.40;99.90
29501;DHT22;16450;50.288;10.966;2023-03-11T07:52:32;1.60;99.90
29501;DHT22;16450;50.288;10.966;2023-03-11T07:55:37;1.60;99.90
29501;DHT22;16450;50.288;10.966;2023-03-11T07:58:40;1.70;99.90
29501;DHT22;16450;50.288;10.966;2023-03-11T08:01:42;1.80;99.90
29501;DHT22;16450;50.288;10.966;2023-03-11T08:04:47;1.80;99.90
29501;DHT22;16450;50.288;10.966;2023-03-11T08:07:49;1.80;99.90
29501;DHT22;16450;50.288;10.966;2023-03-11T08:10:51;1.80;99.90
29501;DHT22;16450;50.288;10.966;2023-03-11T08:13:53;1.90;99.90
29501;DHT22;16450;50.288;10.966;2023-03-11T08:16:55;1.90;99.90
29501;DHT22;16450;50.288;10.966;2023-03-11T08:19:57;1.90;99.90
29501;DHT22;16450;50.288;10.966;2023-03-11T08:22:58;1.90;99.90
29501;DHT22;16450;50.288;10.966;2023-03-11T08:26:05;1.90;99.90
29501;DHT22;16450;50.288;10.966;2023-03-11T08:29:08;2.00;99.90
29501;DHT22;16450;50.288;10.966;2023-03-11T08:32:10;2.00;99.90
29501;DHT22;16450;50.288;10.966;2023-03-11T08:35:12;2.00;99.90
29501;DHT22;16450;50.288;10.966;2023-03-11T08:38:14;2.00;99.90
29501;DHT22;16450;50.288;10.966;2023-03-11T08:41:16;2.10;99.90
29501;DHT22;16450;50.288;10.966;2023-03-11T08:44:17;2.10;99.90
29501;DHT22;16450;50.288;10.966;2023-03-11T08:47:19;2.10;99.90
29501;DHT22;16450;50.288;10.966;2023-03-11T08:50:23;2.20;99.90
29501;DHT22;16450;50.288;10.966;2023-03-11T08:53:25;2.30;99.90
29501;DHT22;16450;50.288;10.966;2023-03-11T08:56:27;2.40;99.90
29501;DHT22;16450;50.288;10.966;2023-03-11T08:59:29;2.50;99.90
29501;DHT22;16450;50.288;10.966;2023-03-11T09:02:31;2.50;99.90
29501;DHT22;16450;50.288;10.966;2023-03-11T09:05:33;2.50;99.90
29501;DHT22;16450;50.288;10.966;2023-03-11T09:08:35;2.50;99.90
29501;DHT22;16450;50.288;10.966;2023-03-11T09:11:37;2.50;99.90
29501;DHT22;16450;50.288;10.966;2023-03-11T09:14:40;2.50;99.60
29501;DHT22;16450;50.288;10.966;2023-03-11T09:17:42;2.40;99.10
29501;DHT22;16450;50.288;10.966;2023-03-11T09:20:44;2.40;99.20
29501;DHT22;16450;50.288;10.966;2023-03-11T09:23:47;2.30;99.20
29501;DHT22;16450;50.288;10.966;2023-03-11T09:26:49;2.20;99.10
29501;DHT22;16450;50.288;10.966;2023-03-11T09:29:50;2.10;99.40
29501;DHT22;16450;50.288;10.966;2023-03-11T09:32:52;2.00;99.70
29501;DHT22;16450;50.288;10.966;2023-03-11T09:35:54;2.00;99.90
29501;DHT22;16450;50.288;10.966;2023-03-11T09:38:57;1.90;99.90
29501;DHT22;16450;50.288;10.966;2023-03-11T09:45:16;2.00;99.40
29501;DHT22;16450;50.288;10.966;2023-03-11T09:48:31;2.00;99.10
29501;DHT22;16450;50.288;10.966;2023-03-11T09:51:42;2.10;99.90
29501;DHT22;16450;50.288;10.966;2023-03-11T09:54:52;2.30;99.90
29501;DHT22;16450;50.288;10.966;2023-03-11T09:57:56;2.60;99.90
29501;DHT22;16450;50.288;10.966;2023-03-11T10:01:01;2.80;99.90
29501;DHT22;16450;50.288;10.966;2023-03-11T10:04:22;3.10;99.90
29501;DHT22;16450;50.288;10.966;2023-03-11T10:07:32;3.50;99.90
29501;DHT22;16450;50.288;10.966;2023-03-11T10:10:41;3.90;99.90
29501;DHT22;16450;50.288;10.966;2023-03-11T10:13:59;4.20;99.90
29501;DHT22;16450;50.288;10.966;2023-03-11T10:17:35;4.50;99.90
29501;DHT22;16450;50.288;10.966;2023-03-11T10:24:37;5.10;99.90
29501;DHT22;16450;50.288;10.966;2023-03-11T10:28:02;5.40;99.20
29501;DHT22;16450;50.288;10.966;2023-03-11T10:34:34;5.60;97.80
29501;DHT22;16450;50.288;10.966;2023-03-11T10:37:43;5.60;99.80
29501;DHT22;16450;50.288;10.966;2023-03-11T10:40:53;5.50;98.20
29501;DHT22;16450;50.288;10.966;2023-03-11T10:44:06;5.40;97.00
29501;DHT22;16450;50.288;10.966;2023-03-11T10:47:16;5.20;95.80
29501;DHT22;16450;50.288;10.966;2023-03-11T10:50:19;5.00;95.90
29501;DHT22;16450;50.288;10.966;2023-03-11T10:53:21;4.80;96.70
29501;DHT22;16450;50.288;10.966;2023-03-11T10:56:36;4.50;96.90
29501;DHT22;16450;50.288;10.966;2023-03-11T10:59:49;4.40;95.80
29501;DHT22;16450;50.288;10.966;2023-03-11T11:02:53;4.20;96.10
29501;DHT22;16450;50.288;10.966;2023-03-11T11:06:06;4.10;97.70
29501;DHT22;16450;50.288;10.966;2023-03-11T11:09:21;4.00;98.10
29501;DHT22;16450;50.288;10.966;2023-03-11T11:12:26;4.00;98.70
29501;DHT22;16450;50.288;10.966;2023-03-11T11:15:39;4.10;99.30
29501;DHT22;16450;50.288;10.966;2023-03-11T11:18:44;4.10;98.00
29501;DHT22;16450;50.288;10.966;2023-03-11T11:21:50;4.10;98.80
29501;DHT22;16450;50.288;10.966;2023-03-11T11:24:54;4.10;98.90
29501;DHT22;16450;50.288;10.966;2023-03-11T11:28:19;4.10;98.10
29501;DHT22;16450;50.288;10.966;2023-03-11T11:31:23;4.00;97.90
29501;DHT22;16450;50.288;10.966;2023-03-11T11:34:33;4.00;97.90
29501;DHT22;16450;50.288;10.966;2023-03-11T11:37:38;3.90;97.60
29501;DHT22;16450;50.288;10.966;2023-03-11T11:40:40;3.90;98.30
29501;DHT22;16450;50.288;10.966;2023-03-11T11:43:47;3.80;98.80
29501;DHT22;16450;50.288;10.966;2023-03-11T11:47:01;3.90;98.60
29501;DHT22;16450;50.288;10.966;2023-03-11T11:50:18;3.90;97.60
29501;DHT22;16450;50.288;10.966;2023-03-11T11:53:42;3.90;98.20
29501;DHT22;16450;50.288;10.966;2023-03-11T11:56:45;4.00;96.90
29501;DHT22;16450;50.288;10.966;2023-03-11T11:59:47;4.10;99.30
29501;DHT22;16450;50.288;10.966;2023-03-11T12:03:08;4.10;99.10
29501;DHT22;16450;50.288;10.966;2023-03-11T12:09:48;4.10;97.90
29501;DHT22;16450;50.288;10.966;2023-03-11T12:16:54;4.20;96.70
29501;DHT22;16450;50.288;10.966;2023-03-11T12:20:33;4.10;96.90
29501;DHT22;16450;50.288;10.966;2023-03-11T12:26:52;4.20;98.90
29501;DHT22;16450;50.288;10.966;2023-03-11T12:29:58;4.10;98.30
29501;DHT22;16450;50.288;10.966;2023-03-11T12:33:04;4.20;97.90
29501;DHT22;16450;50.288;10.966;2023-03-11T12:36:21;4.20;97.70
29501;DHT22;16450;50.288;10.966;2023-03-11T12:39:30;4.20;96.70
29501;DHT22;16450;50.288;10.966;2023-03-11T12:42:38;4.30;97.80
29501;DHT22;16450;50.288;10.966;2023-03-11T12:45:52;4.30;97.20
29501;DHT22;16450;50.288;10.966;2023-03-11T12:49:12;4.40;96.90
29501;DHT22;16450;50.288;10.966;2023-03-11T12:52:19;4.50;96.50
29501;DHT22;16450;50.288;10.966;2023-03-11T12:55:28;4.50;97.30
29501;DHT22;16450;50.288;10.966;2023-03-11T12:58:52;4.50;98.00
29501;DHT22;16450;50.288;10.966;2023-03-11T13:08:48;4.60;96.20
29501;DHT22;16450;50.288;10.966;2023-03-11T13:11:51;4.60;97.80
29501;DHT22;16450;50.288;10.966;2023-03-11T13:18:25;4.50;95.30
29501;DHT22;16450;50.288;10.966;2023-03-11T13:27:39;4.50;97.90
29501;DHT22;16450;50.288;10.966;2023-03-11T13:31:05;4.40;96.50
29501;DHT22;16450;50.288;10.966;2023-03-11T13:40:59;4.30;95.10
29501;DHT22;16450;50.288;10.966;2023-03-11T13:44:40;4.30;97.10
29501;DHT22;16450;50.288;10.966;2023-03-11T13:47:44;4.20;94.10
29501;DHT22;16450;50.288;10.966;2023-03-11T13:50:58;4.20;96.50
29501;DHT22;16450;50.288;10.966;2023-03-11T13:57:30;4.10;95.40
29501;DHT22;16450;50.288;10.966;2023-03-11T14:00:32;4.10;96.10
29501;DHT22;16450;50.288;10.966;2023-03-11T14:03:41;4.00;97.40
29501;DHT22;16450;50.288;10.966;2023-03-11T14:06:43;4.00;96.50
29501;DHT22;16450;50.288;10.966;2023-03-11T14:09:45;4.00;97.90
29501;DHT22;16450;50.288;10.966;2023-03-11T14:12:48;4.10;97.80
29501;DHT22;16450;50.288;10.966;2023-03-11T14:19:12;4.10;96.50
29501;DHT22;16450;50.288;10.966;2023-03-11T14:22:15;4.10;98.00
29501;DHT22;16450;50.288;10.966;2023-03-11T14:25:29;4.10;97.50
29501;DHT22;16450;50.288;10.966;2023-03-11T14:28:37;4.00;96.20
29501;DHT22;16450;50.288;10.966;2023-03-11T14:31:43;4.10;96.70
29501;DHT22;16450;50.288;10.966;2023-03-11T14:34:45;4.10;97.50
29501;DHT22;16450;50.288;10.966;2023-03-11T14:37:48;4.10;97.70
29501;DHT22;16450;50.288;10.966;2023-03-11T14:41:00;4.10;97.60
29501;DHT22;16450;50.288;10.966;2023-03-11T14:44:03;4.10;97.10
29501;DHT22;16450;50.288;10.966;2023-03-11T14:47:27;4.10;97.50
29501;DHT22;16450;50.288;10.966;2023-03-11T14:50:31;4.10;95.50
29501;DHT22;16450;50.288;10.966;2023-03-11T14:53:41;4.00;97.00
29501;DHT22;16450;50.288;10.966;2023-03-11T14:56:48;4.00;96.10
29501;DHT22;16450;50.288;10.966;2023-03-11T14:59:54;4.00;96.40
29501;DHT22;16450;50.288;10.966;2023-03-11T15:03:14;4.00;96.80
29501;DHT22;16450;50.288;10.966;2023-03-11T15:06:21;3.90;95.40
29501;DHT22;16450;50.288;10.966;2023-03-11T15:09:24;3.90;96.80
29501;DHT22;16450;50.288;10.966;2023-03-11T15:12:33;3.90;97.30
29501;DHT22;16450;50.288;10.966;2023-03-11T15:15:35;3.90;96.10
29501;DHT22;16450;50.288;10.966;2023-03-11T15:18:37;3.90;97.20
29501;DHT22;16450;50.288;10.966;2023-03-11T15:21:45;3.90;97.30
29501;DHT22;16450;50.288;10.966;2023-03-11T15:24:55;3.90;96.10
29501;DHT22;16450;50.288;10.966;2023-03-11T15:27:58;3.90;96.20
29501;DHT22;16450;50.288;10.966;2023-03-11T15:34:26;4.00;95.00
29501;DHT22;16450;50.288;10.966;2023-03-11T15:37:29;4.00;97.40
29501;DHT22;16450;50.288;10.966;2023-03-11T15:40:31;4.00;97.30
29501;DHT22;16450;50.288;10.966;2023-03-11T15:43:47;4.00;97.10
29501;DHT22;16450;50.288;10.966;2023-03-11T15:46:50;4.00;96.40
29501;DHT22;16450;50.288;10.966;2023-03-11T15:49:52;3.90;96.80
29501;DHT22;16450;50.288;10.966;2023-03-11T15:52:55;3.90;96.70
29501;DHT22;16450;50.288;10.966;2023-03-11T15:56:01;3.90;96.50
29501;DHT22;16450;50.288;10.966;2023-03-11T15:59:15;3.90;96.10
29501;DHT22;16450;50.288;10.966;2023-03-11T16:02:26;3.80;95.40
29501;DHT22;16450;50.288;10.966;2023-03-11T16:05:28;3.80;95.20
29501;DHT22;16450;50.288;10.966;2023-03-11T16:08:30;3.70;96.70
29501;DHT22;16450;50.288;10.966;2023-03-11T16:11:32;3.70;96.70
29501;DHT22;16450;50.288;10.966;2023-03-11T16:14:34;3.70;96.60
29501;DHT22;16450;50.288;10.966;2023-03-11T16:17:36;3.60;96.80
29501;DHT22;16450;50.288;10.966;2023-03-11T16:20:52;3.60;96.80
29501;DHT22;16450;50.288;10.966;2023-03-11T16:23:54;3.60;96.50
29501;DHT22;16450;50.288;10.966;2023-03-11T16:26:56;3.50;96.80
29501;DHT22;16450;50.288;10.966;2023-03-11T16:29:58;3.60;96.90
29501;DHT22;16450;50.288;10.966;2023-03-11T16:32:59;3.60;96.90
29501;DHT22;16450;50.288;10.966;2023-03-11T16:36:05;3.50;96.70
29501;DHT22;16450;50.288;10.966;2023-03-11T16:39:07;3.50;96.50
29501;DHT22;16450;50.288;10.966;2023-03-11T16:42:10;3.50;96.30
29501;DHT22;16450;50.288;10.966;2023-03-11T16:45:14;3.40;96.00
29501;DHT22;16450;50.288;10.966;2023-03-11T16:48:16;3.30;95.60
29501;DHT22;16450;50.288;10.966;2023-03-11T16:51:18;3.30;95.80
29501;DHT22;16450;50.288;10.966;2023-03-11T16:54:20;3.20;95.80
29501;DHT22;16450;50.288;10.966;2023-03-11T16:57:22;3.10;95.80
29501;DHT22;16450;50.288;10.966;2023-03-11T17:00:24;3.00;95.90
29501;DHT22;16450;50.288;10.966;2023-03-11T17:03:26;3.00;96.10
29501;DHT22;16450;50.288;10.966;2023-03-11T17:06:41;2.90;96.40
29501;DHT22;16450;50.288;10.966;2023-03-11T17:09:43;2.90;96.60
29501;DHT22;16450;50.288;10.966;2023-03-11T17:12:45;2.80;96.60
29501;DHT22;16450;50.288;10.966;2023-03-11T17:16:00;2.80;96.60
29501;DHT22;16450;50.288;10.966;2023-03-11T17:19:02;2.70;95.30
29501;DHT22;16450;50.288;10.966;2023-03-11T17:22:04;2.70;96.50
29501;DHT22;16450;50.288;10.966;2023-03-11T17:25:07;2.70;96.50
29501;DHT22;16450;50.288;10.966;2023-03-11T17:28:09;2.60;96.50
29501;DHT22;16450;50.288;10.966;2023-03-11T17:31:13;2.60;96.60
29501;DHT22;16450;50.288;10.966;2023-03-11T17:34:15;2.60;96.50
29501;DHT22;16450;50.288;10.966;2023-03-11T17:37:17;2.50;96.80
29501;DHT22;16450;50.288;10.966;2023-03-11T17:40:19;2.50;96.40
29501;DHT22;16450;50.288;10.966;2023-03-11T17:43:21;2.40;96.20
29501;DHT22;16450;50.288;10.966;2023-03-11T17:46:24;2.30;96.10
29501;DHT22;16450;50.288;10.966;2023-03-11T17:49:26;2.30;96.10
29501;DHT22;16450;50.288;10.966;2023-03-11T17:52:28;2.20;96.10
29501;DHT22;16450;50.288;10.966;2023-03-11T17:55:32;2.10;96.00
29501;DHT22;16450;50.288;10.966;2023-03-11T17:58:34;2.10;96.10
29501;DHT22;16450;50.288;10.966;2023-03-11T18:01:37;2.00;96.20
29501;DHT22;16450;50.288;10.966;2023-03-11T18:04:39;2.00;96.20
29501;DHT22;16450;50.288;10.966;2023-03-11T18:07:42;1.90;96.20
29501;DHT22;16450;50.288;10.966;2023-03-11T18:10:51;1.80;96.10
29501;DHT22;16450;50.288;10.966;2023-03-11T18:13:53;1.80;95.70
29501;DHT22;16450;50.288;10.966;2023-03-11T18:16:55;1.80;96.10
29501;DHT22;16450;50.288;10.966;2023-03-11T18:19:58;1.70;96.10
29501;DHT22;16450;50.288;10.966;2023-03-11T18:23:00;1.70;96.00
29501;DHT22;16450;50.288;10.966;2023-03-11T18:26:04;1.60;96.00
29501;DHT22;16450;50.288;10.966;2023-03-11T18:29:06;1.50;95.50
29501;DHT22;16450;50.288;10.966;2023-03-11T18:32:08;1.50;95.60
29501;DHT22;16450;50.288;10.966;2023-03-11T18:35:10;1.40;95.40
29501;DHT22;16450;50.288;10.966;2023-03-11T18:38:14;1.40;95.40
29501;DHT22;16450;50.288;10.966;2023-03-11T18:41:16;1.30;95.20
29501;DHT22;16450;50.288;10.966;2023-03-11T18:44:18;1.20;95.10
29501;DHT22;16450;50.288;10.966;2023-03-11T18:47:21;1.10;95.10
29501;DHT22;16450;50.288;10.966;2023-03-11T18:50:23;1.00;95.00
29501;DHT22;16450;50.288;10.966;2023-03-11T18:53:25;0.90;95.30
29501;DHT22;16450;50.288;10.966;2023-03-11T18:56:27;0.90;95.10
29501;DHT22;16450;50.288;10.966;2023-03-11T18:59:31;0.80;95.10
29501;DHT22;16450;50.288;10.966;2023-03-11T19:02:33;0.70;95.10
29501;DHT22;16450;50.288;10.966;2023-03-11T19:05:35;0.70;95.30
29501;DHT22;16450;50.288;10.966;2023-03-11T19:08:37;0.60;95.30
29501;DHT22;16450;50.288;10.966;2023-03-11T19:11:39;0.50;95.40
29501;DHT22;16450;50.288;10.966;2023-03-11T19:14:41;0.50;95.50
29501;DHT22;16450;50.288;10.966;2023-03-11T19:17:43;0.40;95.50
29501;DHT22;16450;50.288;10.966;2023-03-11T19:20:56;0.40;95.60
29501;DHT22;16450;50.288;10.966;2023-03-11T19:23:59;0.30;95.40
29501;DHT22;16450;50.288;10.966;2023-03-11T19:27:01;0.30;95.70
29501;DHT22;16450;50.288;10.966;2023-03-11T19:30:03;0.20;95.70
29501;DHT22;16450;50.288;10.966;2023-03-11T19:33:05;0.20;95.80
29501;DHT22;16450;50.288;10.966;2023-03-11T19:36:08;0.30;96.00
29501;DHT22;16450;50.288;10.966;2023-03-11T19:39:10;0.10;95.90
29501;DHT22;16450;50.288;10.966;2023-03-11T19:42:12;0.10;96.00
29501;DHT22;16450;50.288;10.966;2023-03-11T19:45:13;0.00;96.00
29501;DHT22;16450;50.288;10.966;2023-03-11T19:48:16;0.00;96.00
29501;DHT22;16450;50.288;10.966;2023-03-11T19:51:18;-0.10;95.90
29501;DHT22;16450;50.288;10.966;2023-03-11T19:54:20;-0.10;96.00
29501;DHT22;16450;50.288;10.966;2023-03-11T19:57:22;-0.10;96.00
29501;DHT22;16450;50.288;10.966;2023-03-11T20:00:24;-0.20;96.10
29501;DHT22;16450;50.288;10.966;2023-03-11T20:03:27;-0.20;96.10
29501;DHT22;16450;50.288;10.966;2023-03-11T20:06:29;-0.20;96.20
29501;DHT22;16450;50.288;10.966;2023-03-11T20:09:32;-0.30;96.20
29501;DHT22;16450;50.288;10.966;2023-03-11T20:12:35;-0.30;96.20
29501;DHT22;16450;50.288;10.966;2023-03-11T20:15:37;-0.40;96.30
29501;DHT22;16450;50.288;10.966;2023-03-11T20:18:39;-0.30;96.40
29501;DHT22;16450;50.288;10.966;2023-03-11T20:21:41;-0.40;96.40
29501;DHT22;16450;50.288;10.966;2023-03-11T20:24:46;-0.40;96.50
29501;DHT22;16450;50.288;10.966;2023-03-11T20:27:48;-0.40;96.60
29501;DHT22;16450;50.288;10.966;2023-03-11T20:30:50;-0.40;96.70